createdAt,value
2023-05-05T00:00:22.170Z,8.32
2023-05-05T00:03:11.140Z,8.35
2023-05-05T00:05:40.611Z,8.24
2023-05-05T00:08:10.769Z,8.14
2023-05-05T00:10:39.913Z,8.13
2023-05-05T00:13:08.709Z,8.18
2023-05-05T00:15:37.995Z,8.14
2023-05-05T00:18:06.995Z,8.14
2023-05-05T00:20:36.254Z,8.15
2023-05-05T00:23:05.162Z,8.14
2023-05-05T00:25:35.742Z,8.26
2023-05-05T00:28:04.733Z,8.29
2023-05-05T00:30:34.378Z,8.24
2023-05-05T00:33:03.374Z,8.22
2023-05-05T00:35:32.860Z,8.24
2023-05-05T00:38:01.733Z,8.27
2023-05-05T00:40:31.001Z,8.18
2023-05-05T00:43:01.119Z,8.18
2023-05-05T00:45:31.272Z,8.18
2023-05-05T00:48:01.191Z,8.20
2023-05-05T00:50:31.221Z,8.22
2023-05-05T00:53:02.849Z,8.23
2023-05-05T00:55:32.589Z,8.27
2023-05-05T00:58:04.065Z,8.24
2023-05-05T01:00:33.474Z,8.24
2023-05-05T01:03:03.298Z,8.25
2023-05-05T01:05:38.433Z,8.20
2023-05-05T01:08:14.771Z,8.19
2023-05-05T01:10:46.693Z,8.19
2023-05-05T01:13:22.499Z,8.19
2023-05-05T01:15:54.513Z,8.20
2023-05-05T01:18:30.133Z,8.19
2023-05-05T01:21:03.209Z,8.15
2023-05-05T01:23:44.760Z,8.13
2023-05-05T01:26:22.832Z,8.18
2023-05-05T01:29:02.496Z,8.15
2023-05-05T01:31:43.713Z,8.14
2023-05-05T01:34:16.672Z,8.11
2023-05-05T01:36:50.799Z,8.05
2023-05-05T01:39:21.121Z,8.10
2023-05-05T01:41:52.279Z,8.15
2023-05-05T01:44:21.735Z,8.07
2023-05-05T01:46:53.266Z,8.06
2023-05-05T01:49:22.433Z,8.03
2023-05-05T01:51:52.749Z,8.02
2023-05-05T01:54:23.824Z,7.96
2023-05-05T01:56:54.026Z,7.93
2023-05-05T01:59:24.511Z,7.94
2023-05-05T02:01:56.409Z,7.94
2023-05-05T02:04:26.025Z,7.92
2023-05-05T02:06:57.035Z,7.84
2023-05-05T02:09:26.660Z,7.80
2023-05-05T02:11:57.959Z,7.91
2023-05-05T02:14:29.936Z,7.95
2023-05-05T02:17:01.510Z,7.99
2023-05-05T02:19:31.558Z,7.90
2023-05-05T02:22:01.003Z,7.90
2023-05-05T02:24:30.926Z,7.85
2023-05-05T02:27:01.089Z,7.76
2023-05-05T02:29:32.390Z,7.70
2023-05-05T02:32:05.269Z,7.67
2023-05-05T02:34:36.546Z,7.65
2023-05-05T02:37:09.875Z,7.70
2023-05-05T02:39:43.728Z,7.70
2023-05-05T02:42:19.698Z,7.67
2023-05-05T02:44:51.954Z,7.62
2023-05-05T02:47:23.293Z,7.65
2023-05-05T02:49:54.081Z,7.53
2023-05-05T02:52:23.346Z,7.52
2023-05-05T02:54:52.575Z,7.40
2023-05-05T02:57:27.731Z,7.36
2023-05-05T03:00:06.871Z,7.35
2023-05-05T03:02:46.102Z,7.31
2023-05-05T03:05:19.732Z,7.29
2023-05-05T03:07:51.988Z,7.17
2023-05-05T03:10:22.594Z,7.19
2023-05-05T03:12:56.328Z,7.12
2023-05-05T03:15:32.624Z,7.11
2023-05-05T03:18:05.164Z,7.01
2023-05-05T03:20:34.738Z,6.97
2023-05-05T03:23:09.033Z,6.97
2023-05-05T03:25:45.012Z,6.96
2023-05-05T03:28:20.556Z,6.93
2023-05-05T03:30:49.550Z,6.87
2023-05-05T03:33:21.904Z,6.81
2023-05-05T03:35:50.944Z,6.73
2023-05-05T03:38:21.101Z,6.67
2023-05-05T03:40:50.244Z,6.73
2023-05-05T03:43:22.917Z,6.71
2023-05-05T03:45:51.731Z,6.79
2023-05-05T03:48:23.097Z,6.92
2023-05-05T03:50:54.010Z,6.80
2023-05-05T03:53:25.542Z,6.82
2023-05-05T03:55:54.466Z,6.89
2023-05-05T03:58:23.647Z,6.86
2023-05-05T04:00:52.683Z,6.95
2023-05-05T04:03:24.458Z,6.93
2023-05-05T04:05:54.050Z,6.97
2023-05-05T04:08:24.058Z,6.98
2023-05-05T04:10:53.064Z,7.04
2023-05-05T04:13:22.854Z,7.09
2023-05-05T04:15:52.060Z,7.11
2023-05-05T04:18:22.112Z,7.17
2023-05-05T04:20:53.446Z,7.11
2023-05-05T04:23:22.611Z,7.17
2023-05-05T04:25:52.075Z,7.22
2023-05-05T04:28:22.135Z,7.28
2023-05-05T04:30:51.620Z,7.29
2023-05-05T04:33:20.793Z,7.27
2023-05-05T04:35:51.539Z,7.33
2023-05-05T04:38:22.821Z,7.33
2023-05-05T04:40:51.964Z,7.34
2023-05-05T04:43:21.033Z,7.30
2023-05-05T04:45:53.454Z,7.31
2023-05-05T04:48:24.535Z,7.37
2023-05-05T04:50:54.020Z,7.43
2023-05-05T04:53:24.457Z,7.45
2023-05-05T04:55:53.280Z,7.50
2023-05-05T04:58:22.360Z,7.46
2023-05-05T05:00:51.200Z,7.50
2023-05-05T05:03:21.389Z,7.61
2023-05-05T05:05:50.468Z,7.57
2023-05-05T05:08:19.752Z,7.53
2023-05-05T05:10:49.985Z,7.62
2023-05-05T05:13:19.488Z,7.69
2023-05-05T05:15:48.486Z,7.66
2023-05-05T05:18:17.565Z,7.71
2023-05-05T05:20:47.179Z,7.77
2023-05-05T05:23:16.807Z,7.83
2023-05-05T05:25:46.582Z,7.93
2023-05-05T05:28:19.364Z,7.95
2023-05-05T05:30:53.185Z,7.95
2023-05-05T05:33:23.042Z,7.99
2023-05-05T05:35:52.979Z,8.02
2023-05-05T05:38:23.656Z,8.09
2023-05-05T05:40:55.639Z,8.17
2023-05-05T05:43:27.206Z,8.18
2023-05-05T05:45:56.171Z,8.21
2023-05-05T05:48:28.540Z,8.30
2023-05-05T05:50:58.230Z,8.29
2023-05-05T05:53:28.031Z,8.34
2023-05-05T05:55:57.387Z,8.41
2023-05-05T05:58:27.997Z,8.48
2023-05-05T06:00:59.164Z,8.48
2023-05-05T06:03:28.949Z,8.46
2023-05-05T06:05:59.042Z,8.45
2023-05-05T06:08:28.529Z,8.45
2023-05-05T06:11:00.613Z,8.52
2023-05-05T06:13:31.363Z,8.59
2023-05-05T06:16:00.424Z,8.61
2023-05-05T06:18:29.876Z,8.63
2023-05-05T06:20:58.815Z,8.63
2023-05-05T06:23:30.056Z,8.61
2023-05-05T06:26:03.970Z,8.67
2023-05-05T06:28:34.380Z,8.79
2023-05-05T06:31:03.675Z,8.91
2023-05-05T06:33:33.059Z,8.96
2023-05-05T06:36:01.964Z,9.06
2023-05-05T06:38:31.094Z,9.07
2023-05-05T06:40:59.928Z,9.04
2023-05-05T06:43:29.782Z,9.12
2023-05-05T06:46:03.083Z,9.12
2023-05-05T06:48:32.605Z,9.14
2023-05-05T06:51:01.622Z,9.21
2023-05-05T06:53:30.873Z,9.25
2023-05-05T06:55:59.757Z,9.29
2023-05-05T06:58:28.883Z,9.31
2023-05-05T07:00:57.889Z,9.37
2023-05-05T07:03:29.830Z,9.44
2023-05-05T07:05:58.651Z,9.52
2023-05-05T07:08:27.906Z,9.51
2023-05-05T07:10:56.829Z,9.57
2023-05-05T07:13:25.838Z,9.61
2023-05-05T07:15:54.689Z,9.58
2023-05-05T07:18:23.898Z,9.56
2023-05-05T07:20:54.029Z,9.66
2023-05-05T07:23:23.153Z,9.65
2023-05-05T07:25:51.992Z,9.67
2023-05-05T07:28:22.411Z,9.69
2023-05-05T07:30:52.108Z,9.71
2023-05-05T07:33:21.261Z,9.76
2023-05-05T07:35:50.133Z,9.75
2023-05-05T07:38:20.698Z,9.71
2023-05-05T07:40:49.553Z,9.84
2023-05-05T07:43:18.672Z,9.88
2023-05-05T07:45:47.678Z,9.93
2023-05-05T07:48:16.749Z,9.98
2023-05-05T07:50:45.656Z,9.99
2023-05-05T07:53:15.371Z,10.00
2023-05-05T07:55:45.682Z,10.03
2023-05-05T07:58:14.810Z,10.03
2023-05-05T08:00:44.166Z,10.06
2023-05-05T08:03:13.435Z,10.09
2023-05-05T08:05:42.246Z,10.15
2023-05-05T08:08:11.461Z,10.20
2023-05-05T08:10:40.203Z,10.22
2023-05-05T08:13:10.671Z,10.26
2023-05-05T08:15:39.727Z,10.29
2023-05-05T08:18:08.863Z,10.26
2023-05-05T08:20:38.104Z,10.28
2023-05-05T08:23:07.278Z,10.36
2023-05-05T08:25:36.086Z,10.36
2023-05-05T08:28:05.344Z,10.50
2023-05-05T08:30:35.698Z,10.44
2023-05-05T08:33:04.995Z,10.39
2023-05-05T08:35:33.785Z,10.42
2023-05-05T08:38:02.856Z,10.42
2023-05-05T08:40:34.205Z,10.46
2023-05-05T08:43:04.067Z,10.59
2023-05-05T08:45:33.312Z,10.51
2023-05-05T08:48:05.054Z,10.49
2023-05-05T08:50:34.576Z,10.57
2023-05-05T08:53:09.329Z,10.53
2023-05-05T08:55:42.826Z,10.61
2023-05-05T08:58:12.109Z,10.63
2023-05-05T09:00:42.659Z,10.58
2023-05-05T09:03:13.822Z,10.73
2023-05-05T09:05:43.380Z,10.74
2023-05-05T09:08:12.647Z,10.64
2023-05-05T09:10:42.117Z,10.68
2023-05-05T09:13:11.375Z,10.63
2023-05-05T09:15:42.657Z,10.66
2023-05-05T09:18:13.497Z,10.59
2023-05-05T09:20:42.427Z,10.65
2023-05-05T09:23:12.119Z,10.71
2023-05-05T09:25:41.370Z,10.71
2023-05-05T09:28:11.470Z,10.75
2023-05-05T09:30:40.952Z,10.78
2023-05-05T09:33:10.257Z,10.87
2023-05-05T09:35:53.487Z,10.83
2023-05-05T09:38:24.340Z,10.81
2023-05-05T09:40:53.859Z,10.81
2023-05-05T09:43:24.186Z,10.86
2023-05-05T09:45:53.027Z,10.88
2023-05-05T09:48:26.442Z,10.85
2023-05-05T09:50:57.042Z,10.86
2023-05-05T09:53:27.312Z,10.86
2023-05-05T09:55:56.627Z,10.84
2023-05-05T09:58:26.404Z,10.85
2023-05-05T10:00:55.787Z,10.80
2023-05-05T10:03:25.497Z,10.74
2023-05-05T10:05:57.733Z,10.72
2023-05-05T10:08:27.910Z,10.69
2023-05-05T10:10:59.620Z,10.74
2023-05-05T10:13:28.909Z,10.74
2023-05-05T10:15:58.518Z,10.73
2023-05-05T10:18:28.558Z,10.67
2023-05-05T10:20:59.870Z,10.62
2023-05-05T10:23:35.404Z,10.68
2023-05-05T10:26:06.772Z,10.64
2023-05-05T10:28:38.456Z,10.68
2023-05-05T10:31:23.856Z,10.77
2023-05-05T10:33:56.023Z,10.85
2023-05-05T10:36:27.979Z,10.83
2023-05-05T10:38:58.326Z,10.86
2023-05-05T10:41:27.342Z,10.85
2023-05-05T10:43:57.663Z,10.80
2023-05-05T10:46:27.935Z,10.88
2023-05-05T10:49:00.841Z,10.86
2023-05-05T10:51:40.652Z,10.87
2023-05-05T10:54:15.092Z,10.87
2023-05-05T10:56:44.085Z,10.79
2023-05-05T10:59:31.538Z,10.80
2023-05-05T11:02:00.524Z,10.87
2023-05-05T11:04:31.117Z,10.91
2023-05-05T11:07:18.895Z,10.97
2023-05-05T11:10:01.901Z,11.03
2023-05-05T11:12:33.794Z,11.12
2023-05-05T11:15:24.485Z,11.09
2023-05-05T11:17:56.304Z,11.09
2023-05-05T11:20:41.197Z,11.08
2023-05-05T11:23:25.500Z,11.01
2023-05-05T11:25:57.844Z,10.98
2023-05-05T11:28:29.870Z,10.90
2023-05-05T11:31:18.683Z,10.85
2023-05-05T11:33:47.851Z,10.88
2023-05-05T11:36:18.813Z,10.86
2023-05-05T11:39:05.524Z,10.95
2023-05-05T11:41:47.080Z,11.04
2023-05-05T11:44:18.475Z,10.97
2023-05-05T11:47:17.840Z,11.09
2023-05-05T11:49:47.526Z,11.17
2023-05-05T11:52:16.709Z,11.24
2023-05-05T11:54:48.746Z,11.28
2023-05-05T11:57:21.893Z,11.31
2023-05-05T11:59:52.912Z,11.30
2023-05-05T12:02:22.850Z,11.40
2023-05-05T12:04:52.677Z,11.40
2023-05-05T12:07:22.597Z,11.42
2023-05-05T12:09:52.548Z,11.42
2023-05-05T12:12:34.201Z,11.49
2023-05-05T12:15:05.140Z,11.51
2023-05-05T12:17:38.799Z,11.62
2023-05-05T12:20:10.334Z,11.70
2023-05-05T12:22:40.411Z,11.74
2023-05-05T12:25:11.314Z,11.78
2023-05-05T12:27:42.641Z,11.93
2023-05-05T12:30:14.780Z,11.94
2023-05-05T12:32:44.760Z,11.86
2023-05-05T12:35:14.548Z,11.95
2023-05-05T12:37:44.171Z,11.96
2023-05-05T12:40:31.943Z,11.88
2023-05-05T12:43:02.632Z,11.97
2023-05-05T12:45:31.575Z,11.89
2023-05-05T12:48:01.989Z,11.91
2023-05-05T12:50:31.300Z,11.90
2023-05-05T12:53:00.994Z,11.89
2023-05-05T12:55:40.134Z,11.94
2023-05-05T12:58:11.685Z,11.86
2023-05-05T13:00:41.411Z,11.80
2023-05-05T13:03:19.931Z,11.85
2023-05-05T13:05:49.058Z,11.82
2023-05-05T13:08:20.903Z,11.83
2023-05-05T13:10:59.265Z,11.91
2023-05-05T13:13:32.866Z,11.98
2023-05-05T13:16:01.797Z,11.96
2023-05-05T13:18:30.835Z,12.01
2023-05-05T13:20:59.695Z,11.91
2023-05-05T13:23:28.879Z,12.04
2023-05-05T13:25:57.757Z,12.19
2023-05-05T13:28:29.586Z,12.23
2023-05-05T13:30:59.385Z,12.18
2023-05-05T13:33:30.785Z,12.25
2023-05-05T13:35:59.616Z,12.32
2023-05-05T13:38:31.135Z,12.32
2023-05-05T13:41:00.314Z,12.40
2023-05-05T13:43:30.739Z,12.61
2023-05-05T13:46:12.319Z,12.88
2023-05-05T13:48:48.106Z,12.93
2023-05-05T13:51:17.671Z,13.13
2023-05-05T13:53:47.667Z,13.42
2023-05-05T13:56:18.141Z,13.84
2023-05-05T13:58:51.255Z,13.93
2023-05-05T14:01:20.328Z,14.21
2023-05-05T14:03:49.383Z,14.62
2023-05-05T14:06:18.666Z,14.97
2023-05-05T14:08:47.755Z,15.29
2023-05-05T14:11:18.569Z,15.63
2023-05-05T14:13:50.207Z,16.14
2023-05-05T14:16:19.108Z,16.71
2023-05-05T14:18:48.195Z,17.03
2023-05-05T14:21:17.258Z,17.53
2023-05-05T14:23:46.570Z,17.91
2023-05-05T14:26:16.717Z,18.52
2023-05-05T14:28:48.990Z,18.92
2023-05-05T14:31:27.527Z,19.14
2023-05-05T14:33:57.813Z,19.45
2023-05-05T14:36:26.874Z,19.58
2023-05-05T14:38:56.040Z,19.43
2023-05-05T14:41:25.153Z,19.52
2023-05-05T14:43:54.155Z,19.86
2023-05-05T14:46:24.460Z,19.85
2023-05-05T14:48:53.792Z,19.41
2023-05-05T14:51:23.536Z,19.52
2023-05-05T14:53:52.685Z,18.87
2023-05-05T14:56:21.940Z,18.95
2023-05-05T14:58:51.343Z,18.38
2023-05-05T15:01:20.665Z,18.03
2023-05-05T15:03:52.099Z,17.96
2023-05-05T15:06:22.160Z,17.91
2023-05-05T15:08:51.400Z,17.94
2023-05-05T15:11:20.268Z,18.14
2023-05-05T15:13:49.428Z,18.37
2023-05-05T15:16:18.717Z,18.50
2023-05-05T15:18:48.005Z,18.68
2023-05-05T15:21:19.601Z,18.98
2023-05-05T15:23:50.013Z,19.06
2023-05-05T15:26:18.952Z,19.51
2023-05-05T15:28:50.494Z,19.79
2023-05-05T15:31:19.576Z,19.79
2023-05-05T15:33:51.137Z,20.15
2023-05-05T15:36:22.745Z,20.15
2023-05-05T15:38:51.999Z,20.21
2023-05-05T15:41:20.858Z,20.31
2023-05-05T15:43:52.553Z,20.25
2023-05-05T15:46:21.576Z,20.29
2023-05-05T15:48:50.729Z,20.42
2023-05-05T15:51:19.488Z,20.20
2023-05-05T15:53:54.384Z,19.98
2023-05-05T15:56:23.719Z,19.94
2023-05-05T15:58:52.760Z,19.98
2023-05-05T16:01:22.163Z,20.27
2023-05-05T16:03:51.837Z,20.17
2023-05-05T16:06:20.706Z,19.97
2023-05-05T16:08:52.432Z,19.87
2023-05-05T16:11:22.523Z,19.65
2023-05-05T16:13:51.700Z,19.65
2023-05-05T16:16:20.474Z,19.60
2023-05-05T16:18:50.122Z,19.32
2023-05-05T16:21:19.165Z,19.10
2023-05-05T16:23:48.578Z,18.77
2023-05-05T16:26:19.099Z,18.57
2023-05-05T16:28:48.622Z,17.85
2023-05-05T16:31:17.546Z,17.65
2023-05-05T16:33:46.740Z,17.10
2023-05-05T16:36:16.055Z,16.79
2023-05-05T16:38:45.114Z,16.07
2023-05-05T16:41:14.020Z,15.72
2023-05-05T16:43:44.506Z,15.57
2023-05-05T16:46:16.369Z,15.12
2023-05-05T16:48:46.852Z,14.49
2023-05-05T16:51:15.553Z,14.53
2023-05-05T16:53:44.568Z,14.17
2023-05-05T16:56:13.817Z,13.98
2023-05-05T16:58:44.239Z,13.72
2023-05-05T17:01:13.126Z,13.17
2023-05-05T17:03:42.159Z,13.06
2023-05-05T17:06:12.996Z,12.87
2023-05-05T17:08:42.117Z,12.70
2023-05-05T17:11:11.934Z,12.87
2023-05-05T17:13:41.266Z,12.46
2023-05-05T17:16:11.387Z,12.43
2023-05-05T17:18:40.435Z,12.04
2023-05-05T17:21:09.408Z,11.57
2023-05-05T17:23:38.544Z,11.48
2023-05-05T17:26:07.481Z,11.23
2023-05-05T17:28:36.795Z,11.03
2023-05-05T17:31:05.776Z,11.44
2023-05-05T17:33:36.172Z,11.15
2023-05-05T17:36:05.304Z,10.98
2023-05-05T17:38:34.401Z,10.79
2023-05-05T17:41:03.305Z,10.37
2023-05-05T17:43:32.317Z,10.38
2023-05-05T17:46:01.290Z,10.22
2023-05-05T17:48:30.594Z,10.21
2023-05-05T17:51:00.828Z,10.01
2023-05-05T17:53:29.855Z,9.92
2023-05-05T17:55:58.734Z,10.08
2023-05-05T17:58:27.877Z,10.05
2023-05-05T18:00:56.702Z,9.88
2023-05-05T18:03:26.214Z,9.55
2023-05-05T18:05:55.149Z,9.68
2023-05-05T18:08:25.672Z,9.56
2023-05-05T18:10:54.685Z,9.50
2023-05-05T18:13:23.703Z,9.53
2023-05-05T18:15:52.663Z,9.46
2023-05-05T18:18:22.208Z,9.46
2023-05-05T18:20:51.073Z,9.15
2023-05-05T18:23:21.443Z,9.05
2023-05-05T18:25:51.563Z,8.91
2023-05-05T18:28:20.920Z,8.89
2023-05-05T18:30:49.773Z,8.74
2023-05-05T18:33:18.927Z,8.50
2023-05-05T18:35:47.642Z,8.44
2023-05-05T18:38:16.978Z,8.31
2023-05-05T18:40:45.916Z,8.42
2023-05-05T18:43:16.426Z,8.33
2023-05-05T18:45:46.588Z,8.33
2023-05-05T18:48:16.508Z,8.19
2023-05-05T18:50:45.786Z,8.03
2023-05-05T18:53:16.651Z,8.04
2023-05-05T18:55:47.115Z,7.94
2023-05-05T18:58:17.660Z,7.98
2023-05-05T19:00:46.593Z,7.99
2023-05-05T19:03:15.644Z,7.99
2023-05-05T19:05:44.607Z,7.79
2023-05-05T19:08:13.670Z,7.82
2023-05-05T19:10:42.646Z,7.83
2023-05-05T19:13:11.880Z,7.78
2023-05-05T19:15:46.097Z,7.67
2023-05-05T19:18:18.508Z,7.65
2023-05-05T19:20:47.644Z,7.67
2023-05-05T19:23:17.133Z,7.60
2023-05-05T19:25:46.393Z,7.54
2023-05-05T19:28:16.214Z,7.52
2023-05-05T19:30:48.566Z,7.41
2023-05-05T19:33:18.141Z,7.42
2023-05-05T19:35:46.867Z,7.49
2023-05-05T19:38:16.378Z,7.37
2023-05-05T19:40:45.128Z,7.28
2023-05-05T19:43:15.182Z,7.30
2023-05-05T19:45:43.995Z,7.33
2023-05-05T19:48:16.225Z,7.22
2023-05-05T19:50:45.485Z,7.22
2023-05-05T19:53:14.657Z,7.15
2023-05-05T19:55:43.443Z,7.13
2023-05-05T19:58:12.872Z,7.13
2023-05-05T20:00:42.434Z,7.23
2023-05-05T20:03:13.752Z,7.10
2023-05-05T20:05:44.190Z,7.16
2023-05-05T20:08:13.449Z,7.09
2023-05-05T20:10:43.697Z,7.12
2023-05-05T20:13:16.798Z,7.00
2023-05-05T20:15:46.060Z,7.01
2023-05-05T20:18:15.390Z,6.99
2023-05-05T20:20:45.763Z,6.91
2023-05-05T20:23:14.965Z,7.04
2023-05-05T20:25:43.998Z,6.95
2023-05-05T20:28:13.224Z,6.93
2023-05-05T20:30:42.126Z,6.89
2023-05-05T20:33:11.369Z,6.89
2023-05-05T20:35:41.118Z,6.80
2023-05-05T20:38:11.835Z,6.70
2023-05-05T20:40:41.396Z,6.73
2023-05-05T20:43:12.779Z,6.75
2023-05-05T20:45:42.988Z,6.75
2023-05-05T20:48:12.176Z,6.66
2023-05-05T20:50:41.425Z,6.54
2023-05-05T20:53:13.841Z,6.67
2023-05-05T20:55:42.748Z,6.58
2023-05-05T20:58:11.768Z,6.48
2023-05-05T21:00:40.823Z,6.46
2023-05-05T21:03:11.647Z,6.44
2023-05-05T21:05:41.401Z,6.44
2023-05-05T21:08:11.110Z,6.44
2023-05-05T21:10:42.208Z,6.44
2023-05-05T21:13:12.083Z,6.53
2023-05-05T21:15:41.394Z,6.43
2023-05-05T21:18:10.568Z,6.39
2023-05-05T21:20:39.692Z,6.38
2023-05-05T21:23:08.770Z,6.41
2023-05-05T21:25:39.229Z,6.36
2023-05-05T21:28:11.059Z,6.40
2023-05-05T21:30:39.988Z,6.39
2023-05-05T21:33:09.352Z,6.32
2023-05-05T21:35:39.267Z,6.43
2023-05-05T21:38:08.345Z,6.40
2023-05-05T21:40:37.580Z,6.40
2023-05-05T21:43:07.401Z,6.38
2023-05-05T21:45:37.658Z,6.32
2023-05-05T21:48:07.112Z,6.24
2023-05-05T21:50:37.189Z,6.19
2023-05-05T21:53:06.384Z,6.22
2023-05-05T21:55:35.143Z,6.21
2023-05-05T21:58:04.193Z,6.22
2023-05-05T22:00:33.344Z,6.20
2023-05-05T22:03:04.047Z,6.12
2023-05-05T22:05:32.943Z,6.17
2023-05-05T22:08:01.948Z,6.12
2023-05-05T22:10:30.833Z,6.05
2023-05-05T22:12:59.991Z,6.08
2023-05-05T22:15:35.656Z,6.09
2023-05-05T22:18:13.584Z,6.10
2023-05-05T22:20:42.666Z,6.05
2023-05-05T22:23:11.786Z,6.04
2023-05-05T22:25:40.719Z,6.03
2023-05-05T22:28:09.738Z,6.05
2023-05-05T22:30:38.770Z,6.05
2023-05-05T22:33:08.074Z,6.03
2023-05-05T22:35:38.639Z,5.94
2023-05-05T22:38:07.893Z,5.95
2023-05-05T22:40:37.000Z,5.94
2023-05-05T22:43:06.229Z,5.99
2023-05-05T22:45:34.973Z,5.97
2023-05-05T22:48:04.296Z,5.93
2023-05-05T22:50:33.048Z,5.89
2023-05-05T22:53:03.708Z,5.91
2023-05-05T22:55:32.577Z,5.87
2023-05-05T22:58:01.635Z,5.87
2023-05-05T23:00:30.856Z,5.82
2023-05-05T23:02:59.941Z,5.81
2023-05-05T23:05:28.920Z,5.75
2023-05-05T23:08:00.045Z,5.73
2023-05-05T23:10:30.298Z,5.72
2023-05-05T23:12:59.573Z,5.68
2023-05-05T23:15:28.762Z,5.63
2023-05-05T23:17:58.065Z,5.58
2023-05-05T23:20:26.845Z,5.53
2023-05-05T23:22:56.304Z,5.47
2023-05-05T23:25:25.048Z,5.39
2023-05-05T23:27:55.609Z,5.36
2023-05-05T23:30:24.478Z,5.30
2023-05-05T23:32:54.365Z,5.22
2023-05-05T23:35:23.316Z,5.16
2023-05-05T23:37:52.349Z,5.12
2023-05-05T23:40:21.259Z,5.06
2023-05-05T23:42:50.364Z,5.02
2023-05-05T23:45:20.613Z,4.94
2023-05-05T23:47:49.910Z,4.90
2023-05-05T23:50:18.632Z,4.86
2023-05-05T23:52:47.832Z,4.77
2023-05-05T23:55:16.562Z,4.76
2023-05-05T23:57:45.770Z,4.71
